createdAt,value
2024-03-02T00:01:59.701Z,69.25
2024-03-02T00:04:15.350Z,71.25
2024-03-02T00:06:30.414Z,65.00
2024-03-02T00:08:45.419Z,68.75
2024-03-02T00:11:06.386Z,66.75
2024-03-02T00:13:15.465Z,69.25
2024-03-02T00:15:56.433Z,69.50
2024-03-02T00:18:06.234Z,66.50
2024-03-02T00:20:31.448Z,70.75
2024-03-02T00:22:51.525Z,61.00
2024-03-02T00:25:13.322Z,58.25
2024-03-02T00:27:26.436Z,66.25
2024-03-02T00:29:50.350Z,69.00
2024-03-02T00:32:06.531Z,60.00
2024-03-02T00:34:35.275Z,66.75
2024-03-02T00:36:57.381Z,64.00
2024-03-02T00:39:19.547Z,65.50
2024-03-02T00:41:47.821Z,67.00
2024-03-02T00:44:11.405Z,68.50
2024-03-02T00:46:20.741Z,60.75
2024-03-02T00:48:45.368Z,66.00
2024-03-02T00:51:00.427Z,60.75
2024-03-02T00:53:22.322Z,61.50
2024-03-02T00:55:37.460Z,55.75
2024-03-02T00:57:59.374Z,54.75
2024-03-02T01:00:16.539Z,57.50
2024-03-02T01:02:31.371Z,57.50
2024-03-02T01:04:53.293Z,59.25
2024-03-02T01:07:01.777Z,63.00
2024-03-02T01:09:23.400Z,60.75
2024-03-02T01:11:31.650Z,63.00
2024-03-02T01:13:53.706Z,59.50
2024-03-02T01:16:10.326Z,60.00
2024-03-02T01:18:25.715Z,55.75
2024-03-02T01:20:41.277Z,56.75
2024-03-02T01:22:56.733Z,56.50
2024-03-02T01:25:11.332Z,54.75
2024-03-02T01:27:33.288Z,60.00
2024-03-02T01:29:41.655Z,59.00
2024-03-02T01:32:03.292Z,63.25
2024-03-02T01:34:18.269Z,67.00
2024-03-02T01:36:40.328Z,58.25
2024-03-02T01:38:48.685Z,55.50
2024-03-02T01:41:10.300Z,59.25
2024-03-02T01:43:25.318Z,60.50
2024-03-02T01:45:40.668Z,57.75
2024-03-02T01:47:56.292Z,54.50
2024-03-02T01:50:12.581Z,59.75
2024-03-02T01:52:27.313Z,63.00
2024-03-02T01:54:49.364Z,58.00
2024-03-02T01:56:57.671Z,62.00
2024-03-02T01:59:21.299Z,59.25
2024-03-02T02:01:29.758Z,58.25
2024-03-02T02:03:51.333Z,63.25
2024-03-02T02:06:06.501Z,61.50
2024-03-02T02:08:21.622Z,56.25
2024-03-02T02:10:36.258Z,58.50
2024-03-02T02:12:51.441Z,66.00
2024-03-02T02:15:06.368Z,49.25
2024-03-02T02:17:28.306Z,69.50
2024-03-02T02:19:50.519Z,57.00
2024-03-02T02:22:06.420Z,65.00
2024-03-02T02:24:35.305Z,67.75
2024-03-02T02:26:57.446Z,56.75
2024-03-02T02:29:06.751Z,64.00
2024-03-02T02:31:28.330Z,60.50
2024-03-02T02:33:36.414Z,62.00
2024-03-02T02:35:58.427Z,57.25
2024-03-02T02:38:14.263Z,61.25
2024-03-02T02:40:43.279Z,59.50
2024-03-02T02:43:07.396Z,58.50
2024-03-02T02:45:16.795Z,53.75
2024-03-02T02:47:41.395Z,57.00
2024-03-02T02:49:57.321Z,60.75
2024-03-02T02:52:26.309Z,61.00
2024-03-02T02:54:48.313Z,61.25
2024-03-02T02:56:56.513Z,54.75
2024-03-02T02:59:18.321Z,56.75
2024-03-02T03:01:33.382Z,67.75
2024-03-02T03:03:55.366Z,57.25
2024-03-02T03:06:10.318Z,58.00
2024-03-02T03:08:39.419Z,63.00
2024-03-02T03:11:01.315Z,64.75
2024-03-02T03:13:09.560Z,63.75
2024-03-02T03:15:31.335Z,63.50
2024-03-02T03:17:39.487Z,59.00
2024-03-02T03:20:01.397Z,61.00
2024-03-02T03:22:16.857Z,61.50
2024-03-02T03:24:38.279Z,47.25
2024-03-02T03:26:53.295Z,56.00
2024-03-02T03:29:22.301Z,64.75
2024-03-02T03:31:44.259Z,60.75
2024-03-02T03:33:52.461Z,59.50
2024-03-02T03:36:14.314Z,57.00
2024-03-02T03:38:22.374Z,57.50
2024-03-02T03:40:51.258Z,57.25
2024-03-02T03:43:07.001Z,58.75
2024-03-02T03:45:29.258Z,58.00
2024-03-02T03:47:44.524Z,57.25
2024-03-02T03:49:59.373Z,59.25
2024-03-02T03:52:08.064Z,54.00
2024-03-02T03:54:23.337Z,61.50
2024-03-02T03:56:31.575Z,55.00
2024-03-02T03:58:46.504Z,56.00
2024-03-02T04:01:01.672Z,56.75
2024-03-02T04:03:16.401Z,60.00
2024-03-02T04:05:31.601Z,56.75
2024-03-02T04:07:48.602Z,53.50
2024-03-02T04:10:11.348Z,56.50
2024-03-02T04:12:33.268Z,56.75
2024-03-02T04:14:55.316Z,59.50
2024-03-02T04:17:10.367Z,57.75
2024-03-02T04:19:32.246Z,63.00
2024-03-02T04:21:47.469Z,62.75
2024-03-02T04:24:16.240Z,64.00
2024-03-02T04:26:45.223Z,61.50
2024-03-02T04:29:07.391Z,56.75
2024-03-02T04:31:22.470Z,59.25
2024-03-02T04:33:51.388Z,56.50
2024-03-02T04:36:16.335Z,62.00
2024-03-02T04:38:24.658Z,62.25
2024-03-02T04:40:53.335Z,67.00
2024-03-02T04:43:10.733Z,56.75
2024-03-02T04:45:32.413Z,62.25
2024-03-02T04:47:54.341Z,63.75
2024-03-02T04:50:02.329Z,66.25
2024-03-02T04:52:25.372Z,64.25
2024-03-02T04:54:42.360Z,59.75
2024-03-02T04:57:11.213Z,60.25
2024-03-02T04:59:33.327Z,69.25
2024-03-02T05:01:41.390Z,64.25
2024-03-02T05:04:04.506Z,61.25
2024-03-02T05:06:13.544Z,60.50
2024-03-02T05:08:35.233Z,71.75
2024-03-02T05:10:43.368Z,67.25
2024-03-02T05:13:06.641Z,65.50
2024-03-02T05:15:15.351Z,59.25
2024-03-02T05:17:37.251Z,62.25
2024-03-02T05:19:52.232Z,64.25
2024-03-02T05:22:21.207Z,61.50
2024-03-02T05:24:43.310Z,69.75
2024-03-02T05:26:58.541Z,61.75
2024-03-02T05:29:20.297Z,62.25
2024-03-02T05:31:28.586Z,61.50
2024-03-02T05:33:53.937Z,67.00
2024-03-02T05:36:06.009Z,58.75
2024-03-02T05:38:29.346Z,63.50
2024-03-02T05:40:37.396Z,62.50
2024-03-02T05:42:59.469Z,56.75
2024-03-02T05:45:15.287Z,60.50
2024-03-02T05:47:44.302Z,59.75
2024-03-02T05:50:06.307Z,60.50
2024-03-02T05:52:14.349Z,69.00
2024-03-02T05:54:36.282Z,56.25
2024-03-02T05:56:44.538Z,62.25
2024-03-02T05:59:21.429Z,65.00
2024-03-02T06:01:30.027Z,59.25
2024-03-02T06:03:52.277Z,58.25
2024-03-02T06:06:01.009Z,62.00
2024-03-02T06:08:23.518Z,55.25
2024-03-02T06:10:32.363Z,55.00
2024-03-02T06:12:54.242Z,61.00
2024-03-02T06:15:09.330Z,57.75
2024-03-02T06:17:38.224Z,57.75
2024-03-02T06:20:00.361Z,55.50
2024-03-02T06:22:11.606Z,63.00
2024-03-02T06:24:34.333Z,54.00
2024-03-02T06:26:42.793Z,58.50
2024-03-02T06:29:04.353Z,62.25
2024-03-02T06:31:20.371Z,58.75
2024-03-02T06:33:42.297Z,59.00
2024-03-02T06:35:50.617Z,57.00
2024-03-02T06:38:12.228Z,62.50
2024-03-02T06:40:27.218Z,55.25
2024-03-02T06:42:56.324Z,56.25
2024-03-02T06:45:18.347Z,60.00
2024-03-02T06:47:26.429Z,56.25
2024-03-02T06:49:48.309Z,63.50
2024-03-02T06:52:03.340Z,55.25
2024-03-02T06:54:25.296Z,55.00
2024-03-02T06:56:34.634Z,55.00
2024-03-02T06:58:56.296Z,56.00
2024-03-02T07:01:04.543Z,58.00
2024-03-02T07:03:26.389Z,58.25
2024-03-02T07:05:41.250Z,59.75
2024-03-02T07:08:10.212Z,52.50
2024-03-02T07:10:32.249Z,57.50
2024-03-02T07:12:41.437Z,55.75
2024-03-02T07:15:12.421Z,58.50
2024-03-02T07:17:21.417Z,56.00
2024-03-02T07:19:43.305Z,57.50
2024-03-02T07:21:51.386Z,55.00
2024-03-02T07:24:14.322Z,59.50
2024-03-02T07:28:50.294Z,56.00
2024-03-02T07:31:08.573Z,52.50
2024-03-02T07:33:30.201Z,60.00
2024-03-02T07:35:45.320Z,56.50
2024-03-02T07:38:14.272Z,61.00
2024-03-02T07:40:36.328Z,61.75
2024-03-02T07:42:46.665Z,54.75
2024-03-02T07:45:08.231Z,56.00
2024-03-02T07:47:17.362Z,62.25
2024-03-02T07:49:39.271Z,56.50
2024-03-02T07:51:48.308Z,59.50
2024-03-02T07:54:10.204Z,59.00
2024-03-02T07:56:23.504Z,60.25
2024-03-02T07:58:45.273Z,61.00
2024-03-02T08:01:01.402Z,62.00
2024-03-02T08:03:30.328Z,55.50
2024-03-02T08:05:52.233Z,55.75
2024-03-02T08:08:01.464Z,54.00
2024-03-02T08:10:24.400Z,57.50
2024-03-02T08:12:33.387Z,53.25
2024-03-02T08:14:55.378Z,54.25
2024-03-02T08:17:04.853Z,57.00
2024-03-02T08:19:26.278Z,54.25
2024-03-02T08:21:43.224Z,55.75
2024-03-02T08:24:12.249Z,51.00
2024-03-02T08:26:36.217Z,49.75
2024-03-02T08:28:51.382Z,52.75
2024-03-02T08:31:06.271Z,53.75
2024-03-02T08:33:21.403Z,53.75
2024-03-02T08:35:36.242Z,53.00
2024-03-02T08:37:58.327Z,51.00
2024-03-02T08:40:08.586Z,53.50
2024-03-02T08:42:30.312Z,55.75
2024-03-02T08:44:45.357Z,46.75
2024-03-02T08:47:01.608Z,54.00
2024-03-02T08:49:17.260Z,62.25
2024-03-02T08:51:33.193Z,53.00
2024-03-02T08:53:48.284Z,53.75
2024-03-02T08:56:03.551Z,53.00
2024-03-02T08:58:18.216Z,54.00
2024-03-02T09:00:40.423Z,56.25
2024-03-02T09:02:48.952Z,62.00
2024-03-02T09:05:11.267Z,53.00
2024-03-02T09:07:26.231Z,54.50
2024-03-02T09:09:48.231Z,60.75
2024-03-02T09:11:59.241Z,56.50
2024-03-02T09:14:22.212Z,51.50
2024-03-02T09:16:38.254Z,55.50
2024-03-02T09:18:53.379Z,63.75
2024-03-02T09:21:08.237Z,67.00
2024-03-02T09:23:23.321Z,57.50
2024-03-02T09:25:38.256Z,63.25
2024-03-02T09:27:53.354Z,65.25
2024-03-02T09:30:08.197Z,69.75
2024-03-02T09:32:24.925Z,61.50
2024-03-02T09:34:47.278Z,73.00
2024-03-02T09:36:55.317Z,66.75
2024-03-02T09:39:17.269Z,58.25
2024-03-02T09:41:34.266Z,68.00
2024-03-02T09:43:56.290Z,65.50
2024-03-02T09:46:05.116Z,63.75
2024-03-02T09:48:28.254Z,72.75
2024-03-02T09:50:44.240Z,71.75
2024-03-02T09:53:14.242Z,72.75
2024-03-02T09:55:36.279Z,59.25
2024-03-02T09:57:44.333Z,60.25
2024-03-02T10:00:06.309Z,58.75
2024-03-02T10:02:15.322Z,64.75
2024-03-02T10:04:36.991Z,59.75
2024-03-02T10:06:52.282Z,49.00
2024-03-02T10:09:09.228Z,61.00
2024-03-02T10:11:30.901Z,57.00
2024-03-02T10:13:53.193Z,56.50
2024-03-02T10:16:13.266Z,61.50
2024-03-02T10:18:42.299Z,54.25
2024-03-02T10:20:50.566Z,56.50
2024-03-02T10:23:25.220Z,55.50
2024-03-02T10:25:47.819Z,58.50
2024-03-02T10:28:17.213Z,52.75
2024-03-02T10:30:25.593Z,53.50
2024-03-02T10:32:48.242Z,57.00
2024-03-02T10:35:03.263Z,55.00
2024-03-02T10:37:19.484Z,54.50
2024-03-02T10:39:34.215Z,57.75
2024-03-02T10:41:56.192Z,57.75
2024-03-02T10:44:25.231Z,57.00
2024-03-02T10:46:47.646Z,56.00
2024-03-02T10:48:56.411Z,52.50
2024-03-02T10:51:18.192Z,52.00
2024-03-02T10:53:34.247Z,52.75
2024-03-02T10:56:12.344Z,55.25
2024-03-02T10:58:39.332Z,49.33
2024-03-02T11:01:01.305Z,46.33
2024-03-02T11:03:24.220Z,46.00
2024-03-02T11:05:55.268Z,49.67
2024-03-02T11:08:20.601Z,50.00
2024-03-02T11:10:45.434Z,50.00
2024-03-02T11:13:10.260Z,47.67
2024-03-02T11:15:34.312Z,46.00
2024-03-02T11:17:48.892Z,47.00
2024-03-02T11:20:06.039Z,51.33
2024-03-02T11:22:23.159Z,46.67
2024-03-02T11:24:41.289Z,50.33
2024-03-02T11:26:52.532Z,48.00
2024-03-02T11:29:15.192Z,53.33
2024-03-02T11:31:23.610Z,52.33
2024-03-02T11:33:45.298Z,45.33
2024-03-02T11:36:00.284Z,53.33
2024-03-02T11:38:15.289Z,52.67
2024-03-02T11:40:30.236Z,49.00
2024-03-02T11:42:46.331Z,49.00
2024-03-02T11:45:04.232Z,49.33
2024-03-02T11:47:21.363Z,20.33
2024-03-02T11:49:55.253Z,55.67
2024-03-02T11:52:12.419Z,53.67
2024-03-02T11:54:38.238Z,51.00
2024-03-02T11:56:46.284Z,54.67
2024-03-02T11:59:09.196Z,60.00
2024-03-02T12:01:25.453Z,53.00
2024-03-02T12:03:54.260Z,63.33
2024-03-02T12:06:23.184Z,53.33
2024-03-02T12:08:46.187Z,55.00
2024-03-02T12:11:09.507Z,53.00
2024-03-02T12:13:31.180Z,55.33
2024-03-02T12:15:44.397Z,62.33
2024-03-02T12:18:08.221Z,52.00
2024-03-02T12:20:27.165Z,55.00
2024-03-02T12:22:56.202Z,58.00
2024-03-02T12:25:18.215Z,57.67
2024-03-02T12:27:26.270Z,57.00
2024-03-02T12:29:48.248Z,59.33
2024-03-02T12:31:57.296Z,60.00
2024-03-02T12:34:24.405Z,64.67
2024-03-02T12:36:33.335Z,52.33
2024-03-02T12:38:48.709Z,55.67
2024-03-02T12:41:04.417Z,59.00
2024-03-02T12:43:20.375Z,67.00
2024-03-02T12:45:28.647Z,67.33
2024-03-02T12:47:51.192Z,59.33
2024-03-02T12:50:00.421Z,58.33
2024-03-02T12:52:22.943Z,56.33
2024-03-02T12:54:38.267Z,58.00
2024-03-02T12:56:55.225Z,60.67
2024-03-02T12:59:10.198Z,61.00
2024-03-02T13:01:25.560Z,66.00
2024-03-02T13:03:44.277Z,60.33
2024-03-02T13:05:59.775Z,53.67
2024-03-02T13:08:15.200Z,59.67
2024-03-02T13:10:37.199Z,12.33
2024-03-02T13:12:46.360Z,63.00
2024-03-02T13:15:08.234Z,42.67
2024-03-02T13:17:23.341Z,51.33
2024-03-02T13:19:38.396Z,68.67
2024-03-02T13:21:53.224Z,61.00
2024-03-02T13:24:15.195Z,70.00
2024-03-02T13:26:23.566Z,79.00
2024-03-02T13:28:45.260Z,75.33
2024-03-02T13:30:53.824Z,70.00
2024-03-02T13:33:16.305Z,60.67
2024-03-02T13:35:24.886Z,75.00
2024-03-02T13:37:47.153Z,78.67
2024-03-02T13:40:02.279Z,73.00
2024-03-02T13:42:18.342Z,69.33
2024-03-02T13:44:33.410Z,59.00
2024-03-02T13:46:48.325Z,67.75
2024-03-02T13:49:03.552Z,69.33
2024-03-02T13:51:18.342Z,64.67
2024-03-02T13:53:33.238Z,65.00
2024-03-02T13:55:48.447Z,73.25
2024-03-02T13:58:04.391Z,79.00
2024-03-02T14:00:20.365Z,89.00
2024-03-02T14:02:35.212Z,79.00
2024-03-02T14:05:04.159Z,86.50
2024-03-02T14:07:33.237Z,90.75
2024-03-02T14:09:55.272Z,64.00
2024-03-02T14:12:04.461Z,76.00
2024-03-02T14:14:26.189Z,73.00
2024-03-02T14:16:35.354Z,60.67
2024-03-02T14:18:57.374Z,68.67
2024-03-02T14:21:13.234Z,64.67
2024-03-02T14:23:42.262Z,47.00
2024-03-02T14:26:07.401Z,54.67
2024-03-02T14:28:36.891Z,64.33
2024-03-02T14:30:59.439Z,64.00
2024-03-02T14:33:14.977Z,64.75
2024-03-02T14:35:30.248Z,63.33
2024-03-02T14:37:52.326Z,68.67
2024-03-02T14:40:07.301Z,66.33
2024-03-02T14:42:29.197Z,59.00
2024-03-02T14:44:37.579Z,59.67
2024-03-02T14:47:03.204Z,55.67
2024-03-02T14:49:12.154Z,52.67
2024-03-02T14:51:34.222Z,51.00
2024-03-02T14:53:50.589Z,42.00
2024-03-02T14:56:06.241Z,44.67
2024-03-02T14:58:21.328Z,40.33
2024-03-02T15:00:36.345Z,43.67
2024-03-02T15:02:51.693Z,34.00
2024-03-02T15:05:20.300Z,40.67
2024-03-02T15:07:49.226Z,40.33
2024-03-02T15:10:11.459Z,37.33
2024-03-02T15:12:26.271Z,38.00
2024-03-02T15:14:55.160Z,41.67
2024-03-02T15:17:17.253Z,43.00
2024-03-02T15:19:25.373Z,45.67
2024-03-02T15:21:47.242Z,43.33
2024-03-02T15:23:55.259Z,49.67
2024-03-02T15:26:17.241Z,49.33
2024-03-02T15:28:25.315Z,46.00
2024-03-02T15:30:47.201Z,47.33
2024-03-02T15:32:55.351Z,49.67
2024-03-02T15:35:18.213Z,47.00
2024-03-02T15:37:34.201Z,76.75
2024-03-02T15:39:49.912Z,77.00
2024-03-02T15:42:13.160Z,45.50
2024-03-02T15:44:21.555Z,77.50
2024-03-02T15:46:43.240Z,82.00
2024-03-02T15:48:51.782Z,81.75
2024-03-02T15:51:13.203Z,79.75
2024-03-02T15:53:28.236Z,86.00
2024-03-02T15:55:43.279Z,86.25
2024-03-02T15:57:58.267Z,79.50
2024-03-02T16:00:14.352Z,85.50
2024-03-02T16:02:29.197Z,84.25
2024-03-02T16:04:51.295Z,100.00
2024-03-02T16:06:59.767Z,106.25
2024-03-02T16:09:22.179Z,106.00
2024-03-02T16:11:37.326Z,82.00
2024-03-02T16:13:52.662Z,86.75
2024-03-02T16:16:07.303Z,87.25
2024-03-02T16:18:29.263Z,92.50
2024-03-02T16:20:44.301Z,85.50
2024-03-02T16:22:59.308Z,86.75
2024-03-02T16:25:14.319Z,83.25
2024-03-02T16:27:29.477Z,74.25
2024-03-02T16:29:45.178Z,81.75
2024-03-02T16:32:02.008Z,80.00
2024-03-02T16:34:18.268Z,72.75
2024-03-02T16:36:36.099Z,60.50
2024-03-02T16:38:58.270Z,66.75
2024-03-02T16:41:06.326Z,63.00
2024-03-02T16:43:28.194Z,65.75
2024-03-02T16:45:36.454Z,61.50
2024-03-02T16:47:59.182Z,60.00
2024-03-02T16:50:19.359Z,52.75
2024-03-02T16:52:48.161Z,57.50
2024-03-02T16:55:11.207Z,51.75
2024-03-02T16:57:20.294Z,52.00
2024-03-02T16:59:42.164Z,58.00
2024-03-02T17:01:57.210Z,60.75
2024-03-02T17:04:26.244Z,53.75
2024-03-02T17:06:48.303Z,54.00
2024-03-02T17:08:56.318Z,52.50
2024-03-02T17:11:18.348Z,51.75
2024-03-02T17:13:34.222Z,52.00
2024-03-02T17:15:57.270Z,53.25
2024-03-02T17:18:12.306Z,50.75
2024-03-02T17:20:27.155Z,61.50
2024-03-02T17:22:49.257Z,62.50
2024-03-02T17:24:57.574Z,58.00
2024-03-02T17:27:19.171Z,64.75
2024-03-02T17:29:34.298Z,58.75
2024-03-02T17:31:49.418Z,58.75
2024-03-02T17:34:04.448Z,56.25
2024-03-02T17:36:26.219Z,52.00
2024-03-02T17:38:41.251Z,53.75
2024-03-02T17:41:04.229Z,55.50
2024-03-02T17:43:13.385Z,54.75
2024-03-02T17:45:35.349Z,59.00
2024-03-02T17:47:43.597Z,49.25
2024-03-02T17:50:05.201Z,53.75
2024-03-02T17:52:34.557Z,60.00
2024-03-02T17:55:03.481Z,54.50
2024-03-02T17:57:32.352Z,58.75
2024-03-02T17:59:54.411Z,57.25
2024-03-02T18:02:04.061Z,54.25
2024-03-02T18:04:33.237Z,54.25
2024-03-02T18:07:06.251Z,54.00
2024-03-02T18:09:28.305Z,53.00
2024-03-02T18:11:36.445Z,57.25
2024-03-02T18:13:59.138Z,54.50
2024-03-02T18:16:16.497Z,48.25
2024-03-02T18:18:45.207Z,52.00
2024-03-02T18:21:07.276Z,52.75
2024-03-02T18:23:16.411Z,58.00
2024-03-02T18:25:38.120Z,54.75
2024-03-02T18:27:53.446Z,54.00
2024-03-02T18:30:18.194Z,54.50
2024-03-02T18:32:34.154Z,53.25
2024-03-02T18:34:49.259Z,52.75
2024-03-02T18:37:11.371Z,50.50
2024-03-02T18:39:19.574Z,52.50
2024-03-02T18:41:41.305Z,50.75
2024-03-02T18:44:11.238Z,49.25
2024-03-02T18:46:40.206Z,49.75
2024-03-02T18:48:55.211Z,54.00
2024-03-02T18:51:10.644Z,51.00
2024-03-02T18:53:32.921Z,53.50
2024-03-02T18:55:48.237Z,60.50
2024-03-02T18:58:11.304Z,72.50
2024-03-02T19:00:20.176Z,93.00
2024-03-02T19:02:42.543Z,107.00
2024-03-02T19:04:59.161Z,142.25
2024-03-02T19:07:21.220Z,139.00
2024-03-02T19:09:29.644Z,137.50
2024-03-02T19:11:51.418Z,120.75
2024-03-02T19:13:59.496Z,148.50
2024-03-02T19:16:25.235Z,141.75
2024-03-02T19:18:40.266Z,125.00
2024-03-02T19:20:55.262Z,157.00
2024-03-02T19:23:14.793Z,152.25
2024-03-02T19:25:33.333Z,122.25
2024-03-02T19:27:48.144Z,121.25
2024-03-02T19:30:12.460Z,116.25
2024-03-02T19:32:23.222Z,103.00
2024-03-02T19:34:45.225Z,100.25
2024-03-02T19:37:00.276Z,99.00
2024-03-02T19:39:17.097Z,101.75
2024-03-02T19:41:32.403Z,89.75
2024-03-02T19:43:54.109Z,90.50
2024-03-02T19:46:02.708Z,77.50
2024-03-02T19:48:18.511Z,78.75
2024-03-02T19:50:33.344Z,73.50
2024-03-02T19:52:48.133Z,75.50
2024-03-02T19:55:03.277Z,78.50
2024-03-02T19:57:32.335Z,80.00
2024-03-02T19:59:55.224Z,75.00
2024-03-02T20:02:03.584Z,83.50
2024-03-02T20:04:32.287Z,108.75
2024-03-02T20:07:01.141Z,99.75
2024-03-02T20:09:23.186Z,87.75
2024-03-02T20:11:39.337Z,102.00
2024-03-02T20:13:54.256Z,59.25
2024-03-02T20:16:09.183Z,77.00
2024-03-02T20:18:24.359Z,75.75
2024-03-02T20:20:39.135Z,61.75
2024-03-02T20:22:54.338Z,70.50
2024-03-02T20:25:12.328Z,72.50
2024-03-02T20:27:27.880Z,78.50
2024-03-02T20:29:43.124Z,77.75
2024-03-02T20:32:06.264Z,89.00
2024-03-02T20:34:23.246Z,90.75
2024-03-02T20:36:41.471Z,84.00
2024-03-02T20:38:57.273Z,91.75
2024-03-02T20:41:12.266Z,91.50
2024-03-02T20:43:27.191Z,79.50
2024-03-02T20:45:37.103Z,79.25
2024-03-02T20:47:59.221Z,97.00
2024-03-02T20:50:08.177Z,95.25
2024-03-02T20:52:30.345Z,98.50
2024-03-02T20:54:38.663Z,93.75
2024-03-02T20:57:00.245Z,113.50
2024-03-02T20:59:16.326Z,106.25
2024-03-02T21:01:31.326Z,102.00
2024-03-02T21:03:48.333Z,93.75
2024-03-02T21:06:17.257Z,105.50
2024-03-02T21:08:39.202Z,106.75
2024-03-02T21:10:55.191Z,96.50
2024-03-02T21:13:24.226Z,91.25
2024-03-02T21:15:46.173Z,115.25
2024-03-02T21:17:54.438Z,107.50
2024-03-02T21:20:16.180Z,105.50
2024-03-02T21:22:24.416Z,98.00
2024-03-02T21:24:46.134Z,102.00
2024-03-02T21:27:01.202Z,112.75
2024-03-02T21:30:01.274Z,112.50
2024-03-02T21:32:18.280Z,110.75
2024-03-02T21:34:47.344Z,106.75
2024-03-02T21:37:12.301Z,115.50
2024-03-02T21:39:31.843Z,120.00
2024-03-02T21:41:59.409Z,122.50
2024-03-02T21:44:19.124Z,115.00
2024-03-02T21:46:45.495Z,127.50
2024-03-02T21:48:54.495Z,117.00
2024-03-02T21:51:23.258Z,103.00
2024-03-02T21:53:49.356Z,104.25
2024-03-02T21:56:18.301Z,96.00
2024-03-02T21:58:41.958Z,100.00
2024-03-02T22:00:50.831Z,97.75
2024-03-02T22:06:22.498Z,102.75
2024-03-02T22:08:37.205Z,93.25
2024-03-02T22:10:52.297Z,88.50
2024-03-02T22:13:10.297Z,79.50
2024-03-02T22:15:25.135Z,72.25
2024-03-02T22:17:33.316Z,82.00
2024-03-02T22:19:55.185Z,94.00
2024-03-02T22:22:04.640Z,131.00
2024-03-02T22:24:26.179Z,129.50
2024-03-02T22:26:34.411Z,116.75
2024-03-02T22:28:56.268Z,126.00
2024-03-02T22:31:11.201Z,127.00
2024-03-02T22:33:33.325Z,123.25
2024-03-02T22:35:49.178Z,113.50
2024-03-02T22:38:19.121Z,117.75
2024-03-02T22:40:41.154Z,112.50
2024-03-02T22:42:49.258Z,119.25
2024-03-02T22:45:12.342Z,112.75
2024-03-02T22:47:21.209Z,120.00
2024-03-02T22:49:43.090Z,122.00
2024-03-02T22:51:58.259Z,132.50
2024-03-02T22:54:20.195Z,124.00
2024-03-02T22:56:28.331Z,132.50
2024-03-02T22:58:50.165Z,106.50
2024-03-02T23:01:02.783Z,98.75
2024-03-02T23:03:26.157Z,116.50
2024-03-02T23:05:42.247Z,79.25
2024-03-02T23:08:11.312Z,85.00
2024-03-02T23:10:33.179Z,89.00
2024-03-02T23:12:50.295Z,73.75
2024-03-02T23:15:05.361Z,75.00
2024-03-02T23:17:20.253Z,65.00
2024-03-02T23:19:35.326Z,95.50
2024-03-02T23:21:50.273Z,68.00
2024-03-02T23:23:59.402Z,63.00
2024-03-02T23:26:21.364Z,59.50
2024-03-02T23:28:29.501Z,92.00
2024-03-02T23:30:51.289Z,63.75
2024-03-02T23:33:00.414Z,96.50
2024-03-02T23:35:22.331Z,91.25
2024-03-02T23:37:38.213Z,45.25
2024-03-02T23:40:13.143Z,70.75
2024-03-02T23:42:36.223Z,72.50
2024-03-02T23:44:45.208Z,76.25
2024-03-02T23:47:07.175Z,68.50
2024-03-02T23:49:31.232Z,54.75
2024-03-02T23:52:00.220Z,79.25
2024-03-02T23:54:22.222Z,48.25
2024-03-02T23:56:32.114Z,54.50
2024-03-02T23:58:54.204Z,53.75
